Coleman A. Young Municipal Airport Detroit US
ICAO: KDET
IATA: DET
Category: Medium
Scheduled Services: No

Elevation: 626 ft
TransAlt. 18000 ft.

Airport Communications:
APP/DEP:126.85
ATIS:124.875
GND:121.85
LANSING RDO:122.2
TWR:121.3
UNICOM:122.95

KDET Zoom In..

If you have problems with the map follow the link
https://www.worldairports.se/pages/airport.php?
ICAO=KDET

Runways:

(A) RW 07 length 3714 ft width 100 ft
---- / hdg 68

(B) RW 15 length 5090 ft width 100 ft
ILS 111.30 / hdg 148

(C) RW 25 length 3714 ft width 100 ft
---- / hdg 248

(D) RW 33 length 5090 ft width 100 ft
ILS 111.30 / hdg 328

Location; KDET
Day. 19 / Time. 19.53 Zulu
* Altimeter: 30.11
* Temperature: -04° c. -24.8°f.
* Wind from: VRB° Speed 06 kn.
Dewpoint: -09° c.
Visibility: 10 Statute Miles.
Clouds: Broken 2400 ft.
Clouds: Broken 4300 ft.
Clouds: Overcast 5500 ft.

KDET 191953Z VRB06KT 10SM BKN024 BKN043 OVC055 M04/M09 A3011 RMK AO2 SLP204 T10441094


Wind From VRB°
Speed 06 kn.

 
 
jpsmedia worldairports.se 2020   terms of use